createdAt,value
2019-04-29T00:02:27.127Z,96.10
2019-04-29T00:04:57.479Z,96.20
2019-04-29T00:07:27.807Z,96.00
2019-04-29T00:09:59.245Z,96.10
2019-04-29T00:12:30.643Z,96.00
2019-04-29T00:15:02.642Z,96.10
2019-04-29T00:17:34.753Z,96.00
2019-04-29T00:20:16.960Z,96.00
2019-04-29T00:22:47.301Z,96.10
2019-04-29T00:25:17.649Z,96.10
2019-04-29T00:27:47.985Z,96.10
2019-04-29T00:30:30.757Z,96.10
2019-04-29T00:33:01.087Z,96.00
2019-04-29T00:35:31.502Z,96.10
2019-04-29T00:38:06.658Z,96.10
2019-04-29T00:40:41.450Z,96.20
2019-04-29T00:43:16.107Z,96.10
2019-04-29T00:45:46.533Z,96.10
2019-04-29T00:48:17.238Z,96.10
2019-04-29T00:50:47.581Z,96.20
2019-04-29T00:53:17.912Z,96.60
2019-04-29T00:55:49.902Z,96.40
2019-04-29T00:58:21.306Z,96.40
2019-04-29T01:00:51.641Z,96.30
2019-04-29T01:03:21.973Z,96.40
2019-04-29T01:05:52.308Z,96.50
2019-04-29T01:08:22.637Z,96.60
2019-04-29T01:10:52.979Z,96.40
2019-04-29T01:13:23.309Z,96.30
2019-04-29T01:15:53.654Z,96.40
2019-04-29T01:18:23.981Z,96.30
2019-04-29T01:20:54.330Z,96.40
2019-04-29T01:23:24.660Z,96.50
2019-04-29T01:25:56.644Z,96.70
2019-04-29T01:28:40.591Z,96.80
2019-04-29T01:31:12.576Z,96.60
2019-04-29T01:33:44.356Z,96.70
2019-04-29T01:36:21.879Z,96.80
2019-04-29T01:38:53.849Z,96.80
2019-04-29T01:41:28.492Z,96.90
2019-04-29T01:44:00.291Z,96.60
2019-04-29T01:46:30.811Z,96.50
2019-04-29T01:49:01.133Z,96.60
2019-04-29T01:51:32.555Z,96.60
2019-04-29T01:54:02.882Z,96.70
2019-04-29T01:56:33.230Z,96.60
2019-04-29T01:59:03.568Z,96.60
2019-04-29T02:01:33.922Z,96.60
2019-04-29T02:04:04.588Z,96.60
2019-04-29T02:06:34.934Z,96.60
2019-04-29T02:09:10.215Z,97.00
2019-04-29T02:11:41.204Z,96.60
2019-04-29T02:14:11.529Z,96.60
2019-04-29T02:16:41.881Z,96.70
2019-04-29T02:19:12.216Z,96.70
2019-04-29T02:21:44.221Z,96.70
2019-04-29T02:24:18.868Z,96.60
2019-04-29T02:26:49.209Z,96.60
2019-04-29T02:29:19.542Z,96.70
2019-04-29T02:31:49.903Z,96.70
2019-04-29T02:34:20.245Z,96.60
2019-04-29T02:36:50.602Z,96.60
2019-04-29T02:42:41.884Z,96.60
2019-04-29T02:45:23.206Z,96.60
2019-04-29T02:47:53.554Z,96.60
2019-04-29T02:50:23.876Z,96.50
2019-04-29T02:52:54.283Z,96.60
2019-04-29T02:55:28.892Z,96.60
2019-04-29T02:58:00.888Z,97.00
2019-04-29T03:00:48.790Z,97.00
2019-04-29T03:03:20.772Z,96.60
2019-04-29T03:05:52.742Z,96.60
2019-04-29T03:08:23.235Z,96.60
2019-04-29T03:10:53.629Z,96.60
2019-04-29T03:13:23.967Z,96.60
2019-04-29T03:15:54.565Z,96.60
2019-04-29T03:18:26.540Z,96.60
2019-04-29T03:20:58.504Z,96.60
2019-04-29T03:23:29.034Z,96.70
2019-04-29T03:25:59.356Z,96.60
2019-04-29T03:28:29.704Z,96.50
2019-04-29T03:31:00.033Z,96.50
2019-04-29T03:33:30.448Z,96.60
2019-04-29T03:36:00.786Z,96.60
2019-04-29T03:38:31.238Z,96.70
2019-04-29T03:41:01.551Z,96.50
2019-04-29T03:43:31.895Z,96.50
2019-04-29T03:46:02.221Z,96.60
2019-04-29T03:48:32.572Z,96.60
2019-04-29T03:51:02.900Z,96.50
2019-04-29T03:53:33.237Z,96.60
2019-04-29T03:56:03.561Z,96.60
2019-04-29T03:58:33.911Z,96.50
2019-04-29T04:01:16.236Z,96.60
2019-04-29T04:06:47.706Z,96.60
2019-04-29T04:09:19.708Z,96.60
2019-04-29T04:11:50.041Z,96.70
2019-04-29T04:14:20.375Z,96.60
2019-04-29T04:16:58.379Z,96.60
2019-04-29T04:19:30.356Z,96.60
2019-04-29T04:22:00.685Z,96.70
2019-04-29T04:24:31.038Z,96.70
2019-04-29T04:27:01.368Z,96.70
2019-04-29T04:29:31.712Z,97.00
2019-04-29T04:32:02.045Z,96.70
2019-04-29T04:34:32.458Z,96.70
2019-04-29T04:37:02.788Z,96.80
2019-04-29T04:39:34.770Z,96.70
2019-04-29T04:42:17.307Z,96.80
2019-04-29T04:44:50.623Z,96.90
2019-04-29T04:47:20.950Z,97.00
2019-04-29T04:49:51.284Z,97.10
2019-04-29T04:52:21.609Z,97.10
2019-04-29T04:54:53.594Z,97.10
2019-04-29T04:57:23.913Z,97.10
2019-04-29T04:59:54.260Z,97.20
2019-04-29T05:02:26.281Z,97.20
2019-04-29T05:04:56.610Z,97.20
2019-04-29T05:07:26.984Z,97.10
2019-04-29T05:09:57.298Z,97.00
2019-04-29T05:12:27.638Z,97.20
2019-04-29T05:14:57.983Z,97.20
2019-04-29T05:17:28.308Z,97.10
2019-04-29T05:19:59.657Z,97.10
2019-04-29T05:22:29.984Z,97.20
2019-04-29T05:25:00.334Z,97.10
2019-04-29T05:27:30.666Z,97.00
2019-04-29T05:30:01.042Z,96.90
2019-04-29T05:32:31.385Z,96.80
2019-04-29T05:35:03.360Z,96.80
2019-04-29T05:37:41.329Z,96.70
2019-04-29T05:40:13.545Z,96.60
2019-04-29T05:42:43.880Z,96.40
2019-04-29T05:45:15.946Z,96.30
2019-04-29T05:47:47.912Z,96.20
2019-04-29T05:50:28.967Z,95.90
2019-04-29T05:53:00.950Z,95.70
2019-04-29T05:55:31.298Z,95.60
2019-04-29T05:58:13.610Z,95.50
2019-04-29T06:00:45.965Z,95.30
2019-04-29T06:03:16.289Z,95.30
2019-04-29T06:05:46.644Z,94.60
2019-04-29T06:08:16.972Z,93.40
2019-04-29T06:10:47.305Z,92.40
2019-04-29T06:13:17.639Z,91.90
2019-04-29T06:15:48.055Z,91.20
2019-04-29T06:18:22.155Z,90.80
2019-04-29T06:20:50.380Z,89.80
2019-04-29T06:23:23.227Z,89.20
2019-04-29T06:25:52.765Z,86.40
2019-04-29T06:28:26.332Z,84.50
2019-04-29T06:30:55.147Z,85.10
2019-04-29T06:33:29.151Z,82.20
2019-04-29T06:35:57.535Z,82.90
2019-04-29T06:38:27.890Z,78.80
2019-04-29T06:40:58.240Z,75.90
2019-04-29T06:43:30.364Z,74.80
2019-04-29T06:46:00.630Z,74.50
2019-04-29T06:48:30.979Z,78.10
2019-04-29T06:51:01.330Z,73.00
2019-04-29T06:53:32.729Z,74.20
2019-04-29T06:56:03.076Z,74.70
2019-04-29T06:58:36.588Z,70.50
2019-04-29T07:01:06.451Z,68.40
2019-04-29T07:03:36.794Z,71.70
2019-04-29T07:06:08.063Z,73.60
2019-04-29T07:08:38.399Z,69.10
2019-04-29T07:11:08.802Z,69.10
2019-04-29T07:13:39.107Z,62.80
2019-04-29T07:16:09.525Z,67.30
2019-04-29T07:18:47.804Z,67.60
2019-04-29T07:21:13.040Z,59.70
2019-04-29T07:23:43.518Z,59.80
2019-04-29T07:26:13.861Z,59.70
2019-04-29T07:28:44.196Z,61.20
2019-04-29T07:31:14.535Z,59.20
2019-04-29T07:33:44.879Z,57.20
2019-04-29T07:36:18.730Z,58.00
2019-04-29T07:38:51.765Z,58.70
2019-04-29T07:41:20.882Z,55.70
2019-04-29T07:43:51.159Z,56.50
2019-04-29T07:46:55.741Z,57.80
2019-04-29T07:49:12.708Z,55.60
2019-04-29T07:51:42.513Z,57.50
2019-04-29T07:54:16.034Z,57.10
2019-04-29T07:56:45.365Z,54.60
2019-04-29T07:59:15.771Z,54.60
2019-04-29T08:01:46.105Z,55.40
2019-04-29T08:04:16.469Z,54.20
2019-04-29T08:06:47.139Z,55.20
2019-04-29T08:09:17.709Z,53.70
2019-04-29T08:11:49.191Z,49.10
2019-04-29T08:14:21.639Z,51.60
2019-04-29T08:16:51.980Z,52.80
2019-04-29T08:19:24.771Z,55.50
2019-04-29T08:21:54.357Z,52.10
2019-04-29T08:24:24.698Z,53.50
2019-04-29T08:26:55.033Z,49.70
2019-04-29T08:29:25.378Z,49.00
2019-04-29T08:31:57.358Z,51.80
2019-04-29T08:34:27.772Z,48.50
2019-04-29T08:36:58.104Z,51.50
2019-04-29T08:39:29.513Z,49.60
2019-04-29T08:42:03.812Z,50.50
2019-04-29T08:44:41.602Z,44.60
2019-04-29T08:47:30.547Z,48.10
2019-04-29T08:49:57.403Z,45.70
2019-04-29T08:52:27.762Z,45.30
2019-04-29T08:54:58.101Z,45.80
2019-04-29T08:57:31.730Z,46.00
2019-04-29T09:00:00.468Z,46.60
2019-04-29T09:02:34.994Z,47.60
2019-04-29T09:05:06.922Z,49.90
2019-04-29T09:07:36.168Z,45.50
2019-04-29T09:10:09.079Z,47.30
2019-04-29T09:12:39.411Z,47.20
2019-04-29T09:15:11.937Z,44.30
2019-04-29T09:17:42.273Z,46.20
2019-04-29T09:20:13.123Z,45.80
2019-04-29T09:22:45.095Z,46.00
2019-04-29T09:25:25.697Z,44.00
2019-04-29T09:27:56.308Z,46.60
2019-04-29T09:30:25.612Z,49.10
2019-04-29T09:32:55.940Z,48.10
2019-04-29T09:35:28.738Z,46.50
2019-04-29T09:37:59.604Z,45.70
2019-04-29T09:40:31.685Z,48.30
2019-04-29T09:43:15.220Z,45.30
2019-04-29T09:45:58.771Z,45.70
2019-04-29T09:48:27.207Z,45.60
2019-04-29T09:50:57.552Z,48.10
2019-04-29T09:53:27.961Z,48.10
2019-04-29T09:55:58.673Z,46.80
2019-04-29T09:58:29.017Z,48.00
2019-04-29T10:01:13.996Z,48.00
2019-04-29T10:03:46.670Z,47.40
2019-04-29T10:06:18.646Z,47.50
2019-04-29T10:08:48.991Z,48.70
2019-04-29T10:11:19.404Z,48.50
2019-04-29T10:13:50.803Z,49.00
2019-04-29T10:16:22.959Z,50.30
2019-04-29T10:19:07.118Z,50.20
2019-04-29T10:21:37.471Z,50.30
2019-04-29T10:24:08.991Z,51.20
2019-04-29T10:26:39.328Z,51.50
2019-04-29T10:29:13.754Z,51.40
2019-04-29T10:31:43.349Z,51.60
2019-04-29T10:34:13.694Z,50.40
2019-04-29T10:36:44.091Z,50.60
2019-04-29T10:39:22.608Z,50.90
2019-04-29T10:41:52.089Z,51.50
2019-04-29T10:44:30.014Z,52.50
2019-04-29T10:47:15.147Z,50.80
2019-04-29T10:50:01.953Z,52.40
2019-04-29T10:52:34.428Z,52.10
2019-04-29T10:55:08.289Z,49.80
2019-04-29T10:57:38.962Z,50.70
2019-04-29T11:00:29.521Z,50.80
2019-04-29T11:02:59.851Z,51.60
2019-04-29T11:05:35.030Z,49.00
2019-04-29T11:08:07.812Z,46.40
2019-04-29T11:10:38.161Z,48.90
2019-04-29T11:13:08.564Z,49.60
2019-04-29T11:15:38.975Z,46.90
2019-04-29T11:18:09.382Z,46.60
2019-04-29T11:20:39.748Z,46.50
2019-04-29T11:23:16.662Z,46.90
2019-04-29T11:26:02.281Z,46.60
2019-04-29T11:28:33.054Z,46.80
2019-04-29T11:31:03.436Z,48.20
2019-04-29T11:33:39.573Z,46.90
2019-04-29T11:36:09.100Z,46.70
2019-04-29T11:38:40.794Z,46.30
2019-04-29T11:41:12.216Z,44.10
2019-04-29T11:43:46.698Z,47.00
2019-04-29T11:46:15.834Z,45.40
2019-04-29T11:48:46.171Z,45.90
2019-04-29T11:51:23.954Z,47.20
2019-04-29T11:53:54.315Z,46.00
2019-04-29T11:56:24.819Z,47.60
2019-04-29T11:59:13.006Z,47.30
2019-04-29T12:01:52.086Z,47.60
2019-04-29T12:04:28.685Z,47.60
2019-04-29T12:06:58.178Z,47.40
2019-04-29T12:09:30.443Z,47.20
2019-04-29T12:12:01.287Z,47.30
2019-04-29T12:14:33.736Z,47.70
2019-04-29T12:17:25.106Z,45.90
2019-04-29T12:19:57.085Z,46.80
2019-04-29T12:22:30.829Z,48.30
2019-04-29T12:24:59.461Z,49.50
2019-04-29T12:27:29.804Z,49.90
2019-04-29T12:30:00.359Z,49.80
2019-04-29T12:32:44.594Z,50.50
2019-04-29T12:35:30.272Z,51.60
2019-04-29T12:38:05.862Z,49.70
2019-04-29T12:40:36.609Z,51.40
2019-04-29T12:43:23.792Z,49.80
2019-04-29T12:45:58.585Z,49.50
2019-04-29T12:48:28.995Z,50.70
2019-04-29T12:50:59.707Z,51.10
2019-04-29T12:53:30.037Z,50.80
2019-04-29T12:56:00.372Z,50.10
2019-04-29T12:58:30.783Z,51.70
2019-04-29T13:01:05.871Z,52.00
2019-04-29T13:03:42.223Z,52.20
2019-04-29T13:06:24.261Z,52.00
2019-04-29T13:08:56.826Z,52.40
2019-04-29T13:11:37.452Z,52.70
2019-04-29T13:14:01.906Z,52.50
2019-04-29T13:16:35.139Z,52.60
2019-04-29T13:19:25.213Z,52.90
2019-04-29T13:21:54.500Z,51.90
2019-04-29T13:24:25.375Z,50.70
2019-04-29T13:26:55.952Z,50.30
2019-04-29T13:29:27.777Z,51.00
2019-04-29T13:32:01.644Z,50.00
2019-04-29T13:34:33.564Z,52.20
2019-04-29T13:37:12.306Z,53.00
2019-04-29T13:39:39.695Z,53.00
2019-04-29T13:42:11.425Z,50.90
2019-04-29T13:44:42.708Z,52.10
2019-04-29T13:47:28.624Z,52.10
2019-04-29T13:50:17.077Z,52.30
2019-04-29T13:52:32.127Z,50.30
2019-04-29T13:55:16.542Z,51.50
2019-04-29T13:57:34.570Z,52.20
2019-04-29T14:00:12.571Z,53.20
2019-04-29T14:02:58.833Z,53.20
2019-04-29T14:05:21.645Z,53.80
2019-04-29T14:07:52.747Z,53.60
2019-04-29T14:10:24.093Z,54.00
2019-04-29T14:13:08.966Z,54.40
2019-04-29T14:15:29.662Z,53.60
2019-04-29T14:17:58.567Z,53.20
2019-04-29T14:20:28.910Z,52.10
2019-04-29T14:22:59.250Z,53.60
2019-04-29T14:25:29.629Z,53.90
2019-04-29T14:28:00.083Z,53.40
2019-04-29T14:30:38.643Z,54.00
2019-04-29T14:33:03.325Z,54.80
2019-04-29T14:35:50.329Z,55.00
2019-04-29T14:38:23.940Z,54.90
2019-04-29T14:40:52.709Z,54.80
2019-04-29T14:43:36.503Z,55.20
2019-04-29T14:46:17.457Z,55.00
2019-04-29T14:48:55.286Z,55.00
2019-04-29T14:51:28.460Z,55.40
2019-04-29T14:54:01.384Z,55.00
2019-04-29T14:56:29.701Z,54.90
2019-04-29T14:59:07.103Z,54.90
2019-04-29T15:01:33.829Z,55.20
2019-04-29T15:04:18.278Z,55.70
2019-04-29T15:06:43.621Z,55.90
2019-04-29T15:09:17.943Z,56.10
2019-04-29T15:11:50.493Z,56.10
2019-04-29T15:14:40.870Z,56.50
2019-04-29T15:17:12.849Z,56.90
2019-04-29T15:19:57.637Z,57.20
2019-04-29T15:22:32.299Z,57.80
2019-04-29T15:25:02.632Z,57.60
2019-04-29T15:27:32.998Z,58.00
2019-04-29T15:30:05.356Z,57.40
2019-04-29T15:32:36.628Z,58.00
2019-04-29T15:35:08.005Z,58.20
2019-04-29T15:37:38.369Z,58.60
2019-04-29T15:40:10.249Z,59.20
2019-04-29T15:42:43.210Z,59.10
2019-04-29T15:45:12.942Z,60.00
2019-04-29T15:47:45.718Z,59.10
2019-04-29T15:50:18.687Z,59.70
2019-04-29T15:52:47.586Z,59.80
2019-04-29T15:55:17.902Z,60.00
2019-04-29T15:57:50.254Z,59.50
2019-04-29T16:00:22.690Z,59.90
2019-04-29T16:02:52.527Z,59.70
2019-04-29T16:05:24.506Z,59.90
2019-04-29T16:07:57.260Z,59.80
2019-04-29T16:10:39.397Z,60.30
2019-04-29T16:13:11.368Z,59.90
2019-04-29T16:15:41.715Z,60.10
2019-04-29T16:18:14.833Z,60.80
2019-04-29T16:20:44.093Z,61.50
2019-04-29T16:23:14.436Z,61.90
2019-04-29T16:28:16.832Z,61.80
2019-04-29T16:30:47.164Z,61.80
2019-04-29T16:33:17.524Z,61.40
2019-04-29T16:35:47.858Z,61.50
2019-04-29T16:38:18.202Z,61.30
2019-04-29T16:40:57.255Z,61.30
2019-04-29T16:43:41.228Z,62.10
2019-04-29T16:46:16.291Z,63.80
2019-04-29T16:48:46.623Z,63.80
2019-04-29T16:51:16.968Z,63.20
2019-04-29T16:53:47.367Z,64.80
2019-04-29T16:56:17.735Z,64.70
2019-04-29T16:58:50.132Z,65.30
2019-04-29T17:01:21.128Z,65.60
2019-04-29T17:03:51.841Z,66.60
2019-04-29T17:06:22.357Z,66.90
2019-04-29T17:09:04.965Z,67.40
2019-04-29T17:11:35.399Z,67.60
2019-04-29T17:14:10.056Z,67.70
2019-04-29T17:16:38.080Z,68.00
2019-04-29T17:19:08.492Z,68.90
2019-04-29T17:21:38.829Z,69.30
2019-04-29T17:24:09.170Z,70.00
2019-04-29T17:26:57.363Z,69.50
2019-04-29T17:29:38.948Z,70.30
2019-04-29T17:32:15.748Z,70.70
2019-04-29T17:34:58.652Z,71.10
2019-04-29T17:35:18.745Z,62.60
2019-04-29T17:37:23.350Z,71.60
2019-04-29T17:39:53.688Z,72.00
2019-04-29T17:42:27.584Z,72.10
2019-04-29T17:45:01.356Z,72.30
2019-04-29T17:47:32.069Z,72.80
2019-04-29T17:50:13.014Z,73.30
2019-04-29T17:52:43.423Z,73.50
2019-04-29T17:55:15.707Z,73.70
2019-04-29T17:57:50.376Z,73.50
2019-04-29T18:00:28.083Z,73.90
2019-04-29T18:03:12.980Z,74.20
2019-04-29T18:05:54.970Z,74.90
2019-04-29T18:08:21.343Z,75.10
2019-04-29T18:10:59.932Z,75.80
2019-04-29T18:13:28.246Z,75.90
2019-04-29T18:16:03.963Z,76.40
2019-04-29T18:18:43.204Z,76.70
2019-04-29T18:21:08.949Z,76.70
2019-04-29T18:23:51.563Z,76.60
2019-04-29T18:26:29.446Z,76.70
2019-04-29T18:29:03.428Z,77.10
2019-04-29T18:31:32.991Z,76.90
2019-04-29T18:34:03.335Z,77.10
2019-04-29T18:36:35.154Z,77.50
2019-04-29T18:39:09.448Z,77.70
2019-04-29T18:41:39.776Z,78.00
2019-04-29T18:44:18.877Z,78.40
2019-04-29T18:46:45.983Z,78.30
2019-04-29T18:49:15.921Z,78.40
2019-04-29T18:51:46.279Z,79.00
2019-04-29T18:54:16.699Z,78.80
2019-04-29T18:56:46.979Z,79.40
2019-04-29T18:59:21.033Z,79.60
2019-04-29T19:01:49.364Z,80.30
2019-04-29T19:04:29.935Z,80.80
2019-04-29T19:07:02.461Z,80.70
2019-04-29T19:09:35.847Z,81.40
2019-04-29T19:12:06.118Z,81.40
2019-04-29T19:14:36.458Z,82.20
2019-04-29T19:17:06.797Z,82.30
2019-04-29T19:19:39.387Z,82.40
2019-04-29T19:22:09.572Z,82.50
2019-04-29T19:24:39.996Z,83.00
2019-04-29T19:27:10.617Z,83.20
2019-04-29T19:29:43.197Z,83.20
2019-04-29T19:32:13.063Z,83.40
2019-04-29T19:34:45.704Z,83.30
2019-04-29T19:37:15.466Z,83.50
2019-04-29T19:39:45.790Z,83.40
2019-04-29T19:42:28.711Z,83.60
2019-04-29T19:44:48.170Z,83.80
2019-04-29T19:47:19.586Z,83.70
2019-04-29T19:49:49.925Z,83.80
2019-04-29T19:52:28.617Z,84.10
2019-04-29T19:54:52.309Z,83.90
2019-04-29T19:57:22.652Z,83.90
2019-04-29T19:59:54.504Z,84.00
2019-04-29T20:02:25.931Z,83.90
2019-04-29T20:04:59.660Z,84.00
2019-04-29T20:07:31.058Z,84.10
2019-04-29T20:10:05.264Z,83.70
2019-04-29T20:12:36.494Z,84.00
2019-04-29T20:15:08.853Z,84.30
2019-04-29T20:17:47.028Z,84.20
2019-04-29T20:20:25.308Z,84.20
2019-04-29T20:22:55.975Z,84.20
2019-04-29T20:25:30.934Z,84.50
2019-04-29T20:28:05.962Z,84.60
2019-04-29T20:30:30.580Z,84.60
2019-04-29T20:33:09.000Z,84.80
2019-04-29T20:35:33.109Z,84.60
2019-04-29T20:38:05.414Z,84.70
2019-04-29T20:40:41.520Z,84.90
2019-04-29T20:43:08.576Z,84.90
2019-04-29T20:45:39.218Z,85.90
2019-04-29T20:48:11.117Z,85.20
2019-04-29T20:50:46.089Z,85.10
2019-04-29T20:53:18.075Z,85.10
2019-04-29T20:55:48.564Z,85.20
2019-04-29T20:58:23.676Z,85.20
2019-04-29T21:00:51.111Z,85.20
2019-04-29T21:03:27.703Z,85.20
2019-04-29T21:05:54.946Z,85.50
2019-04-29T21:08:26.004Z,85.60
2019-04-29T21:10:57.953Z,86.00
2019-04-29T21:13:35.874Z,85.80
2019-04-29T21:16:07.843Z,86.00
2019-04-29T21:18:38.847Z,85.70
2019-04-29T21:21:10.367Z,85.70
2019-04-29T21:23:40.705Z,85.60
2019-04-29T21:26:11.041Z,85.60
2019-04-29T21:28:42.461Z,85.60
2019-04-29T21:31:16.582Z,85.70
2019-04-29T21:33:45.705Z,85.70
2019-04-29T21:36:20.600Z,85.90
2019-04-29T21:39:08.818Z,86.00
2019-04-29T21:41:55.534Z,85.90
2019-04-29T21:44:27.909Z,85.80
2019-04-29T21:46:59.619Z,85.80
2019-04-29T21:49:42.747Z,85.70
2019-04-29T21:52:02.959Z,86.00
2019-04-29T21:54:33.314Z,86.10
2019-04-29T21:57:05.676Z,86.20
2019-04-29T21:59:35.828Z,86.10
2019-04-29T22:02:11.403Z,86.20
2019-04-29T22:04:40.095Z,86.10
2019-04-29T22:07:29.834Z,86.40
2019-04-29T22:10:00.169Z,86.40
2019-04-29T22:12:30.505Z,86.40
2019-04-29T22:15:00.860Z,86.40
2019-04-29T22:17:32.920Z,86.20
2019-04-29T22:20:07.732Z,86.30
2019-04-29T22:22:38.446Z,86.20
2019-04-29T22:25:09.921Z,86.20
2019-04-29T22:27:41.248Z,86.40
2019-04-29T22:30:15.284Z,86.30
2019-04-29T22:32:46.939Z,86.20
2019-04-29T22:35:18.572Z,86.20
2019-04-29T22:37:48.904Z,86.30
2019-04-29T22:40:19.418Z,86.10
2019-04-29T22:43:04.697Z,85.90
2019-04-29T22:45:29.545Z,85.90
2019-04-29T22:48:14.173Z,86.90
2019-04-29T22:50:33.713Z,86.30
2019-04-29T22:53:07.281Z,86.20
2019-04-29T22:55:38.758Z,86.10
2019-04-29T22:58:09.622Z,86.20
2019-04-29T23:00:40.203Z,86.40
2019-04-29T23:03:10.555Z,86.40
2019-04-29T23:05:40.889Z,86.30
2019-04-29T23:08:11.246Z,86.30
2019-04-29T23:10:41.580Z,86.30
2019-04-29T23:13:11.937Z,86.20
2019-04-29T23:15:42.254Z,86.20
2019-04-29T23:18:23.880Z,87.30
2019-04-29T23:21:03.992Z,87.30
2019-04-29T23:23:42.461Z,86.40
2019-04-29T23:26:12.869Z,86.40
2019-04-29T23:28:43.209Z,86.40
2019-04-29T23:31:13.540Z,86.20
2019-04-29T23:33:45.687Z,85.90
2019-04-29T23:36:16.130Z,86.10
2019-04-29T23:38:47.396Z,85.90
2019-04-29T23:41:17.750Z,85.90
2019-04-29T23:43:48.090Z,85.90
2019-04-29T23:46:18.429Z,86.00
2019-04-29T23:48:48.764Z,86.10
2019-04-29T23:51:19.102Z,86.20
2019-04-29T23:53:49.431Z,86.30
2019-04-29T23:56:21.487Z,86.50
2019-04-29T23:58:59.421Z,86.40
